sensor_id;sensor_type;location;lat;lon;timestamp;P1;durP1;ratioP1;P2;durP2;ratioP2
40661;SDS011;26349;51.202;4.444;2022-07-23T19:57:12;5.30;;;4.00;;
40661;SDS011;26349;51.202;4.444;2022-07-23T19:59:39;7.23;;;4.30;;
40661;SDS011;26349;51.202;4.444;2022-07-23T20:02:05;6.70;;;4.10;;
40661;SDS011;26349;51.202;4.444;2022-07-23T20:04:31;5.10;;;4.60;;
40661;SDS011;26349;51.202;4.444;2022-07-23T20:06:57;8.23;;;4.57;;
40661;SDS011;26349;51.202;4.444;2022-07-23T20:09:23;8.03;;;4.23;;
40661;SDS011;26349;51.202;4.444;2022-07-23T20:11:49;4.63;;;4.10;;
40661;SDS011;26349;51.202;4.444;2022-07-23T20:14:15;5.60;;;5.00;;
40661;SDS011;26349;51.202;4.444;2022-07-23T20:16:42;9.27;;;5.07;;
40661;SDS011;26349;51.202;4.444;2022-07-23T20:19:08;9.10;;;5.33;;
40661;SDS011;26349;51.202;4.444;2022-07-23T20:21:34;7.43;;;4.57;;
40661;SDS011;26349;51.202;4.444;2022-07-23T20:24:00;5.53;;;4.60;;
40661;SDS011;26349;51.202;4.444;2022-07-23T20:26:29;5.60;;;5.10;;
40661;SDS011;26349;51.202;4.444;2022-07-23T20:28:56;6.60;;;5.40;;
40661;SDS011;26349;51.202;4.444;2022-07-23T20:31:22;4.80;;;4.40;;
40661;SDS011;26349;51.202;4.444;2022-07-23T20:33:48;7.57;;;5.33;;
40661;SDS011;26349;51.202;4.444;2022-07-23T20:36:14;7.50;;;5.97;;
40661;SDS011;26349;51.202;4.444;2022-07-23T20:38:40;6.17;;;5.37;;
40661;SDS011;26349;51.202;4.444;2022-07-23T20:41:06;6.87;;;5.23;;
40661;SDS011;26349;51.202;4.444;2022-07-23T20:43:32;9.40;;;5.40;;
40661;SDS011;26349;51.202;4.444;2022-07-23T20:45:58;7.13;;;5.63;;
40661;SDS011;26349;51.202;4.444;2022-07-23T20:48:24;6.23;;;5.63;;
40661;SDS011;26349;51.202;4.444;2022-07-23T20:50:50;8.00;;;6.60;;
40661;SDS011;26349;51.202;4.444;2022-07-23T20:53:17;12.97;;;7.70;;
40661;SDS011;26349;51.202;4.444;2022-07-23T20:55:44;8.90;;;6.40;;
40661;SDS011;26349;51.202;4.444;2022-07-23T20:58:11;6.20;;;5.60;;
40661;SDS011;26349;51.202;4.444;2022-07-23T21:00:37;8.43;;;5.50;;
40661;SDS011;26349;51.202;4.444;2022-07-23T21:03:03;8.97;;;6.23;;
40661;SDS011;26349;51.202;4.444;2022-07-23T21:05:30;7.23;;;6.40;;
40661;SDS011;26349;51.202;4.444;2022-07-23T21:07:56;7.10;;;5.53;;
40661;SDS011;26349;51.202;4.444;2022-07-23T21:10:22;6.67;;;5.70;;
40661;SDS011;26349;51.202;4.444;2022-07-23T21:12:48;5.47;;;4.93;;
40661;SDS011;26349;51.202;4.444;2022-07-23T21:15:14;5.57;;;4.47;;
40661;SDS011;26349;51.202;4.444;2022-07-23T21:17:41;7.63;;;5.43;;
40661;SDS011;26349;51.202;4.444;2022-07-23T21:20:07;5.47;;;4.97;;
40661;SDS011;26349;51.202;4.444;2022-07-23T21:22:33;8.53;;;4.87;;
40661;SDS011;26349;51.202;4.444;2022-07-23T21:24:59;7.10;;;6.40;;
40661;SDS011;26349;51.202;4.444;2022-07-23T21:27:25;7.00;;;5.07;;
40661;SDS011;26349;51.202;4.444;2022-07-23T21:29:51;9.93;;;5.10;;
40661;SDS011;26349;51.202;4.444;2022-07-23T21:32:17;8.23;;;5.43;;
40661;SDS011;26349;51.202;4.444;2022-07-23T21:34:44;9.80;;;4.40;;
40661;SDS011;26349;51.202;4.444;2022-07-23T21:37:10;7.27;;;6.40;;
40661;SDS011;26349;51.202;4.444;2022-07-23T21:39:36;6.30;;;5.70;;
40661;SDS011;26349;51.202;4.444;2022-07-23T21:42:02;6.63;;;5.83;;
40661;SDS011;26349;51.202;4.444;2022-07-23T21:44:28;6.40;;;5.90;;
40661;SDS011;26349;51.202;4.444;2022-07-23T21:46:54;6.60;;;6.00;;
40661;SDS011;26349;51.202;4.444;2022-07-23T21:49:20;5.83;;;5.20;;
40661;SDS011;26349;51.202;4.444;2022-07-23T21:51:46;5.87;;;4.63;;
40661;SDS011;26349;51.202;4.444;2022-07-23T21:54:12;12.67;;;5.63;;
40661;SDS011;26349;51.202;4.444;2022-07-23T21:56:38;7.67;;;6.87;;
40661;SDS011;26349;51.202;4.444;2022-07-23T21:59:04;7.47;;;5.40;;
40661;SDS011;26349;51.202;4.444;2022-07-23T22:01:30;6.07;;;5.37;;
40661;SDS011;26349;51.202;4.444;2022-07-23T22:03:56;5.43;;;4.93;;
40661;SDS011;26349;51.202;4.444;2022-07-23T22:06:23;6.90;;;5.70;;
40661;SDS011;26349;51.202;4.444;2022-07-23T22:08:49;5.57;;;4.70;;
40661;SDS011;26349;51.202;4.444;2022-07-23T22:11:15;8.00;;;5.47;;
40661;SDS011;26349;51.202;4.444;2022-07-23T22:13:41;8.77;;;5.13;;
40661;SDS011;26349;51.202;4.444;2022-07-23T22:16:07;5.93;;;4.77;;
40661;SDS011;26349;51.202;4.444;2022-07-23T22:18:33;6.07;;;5.03;;
40661;SDS011;26349;51.202;4.444;2022-07-23T22:20:59;5.80;;;5.37;;
40661;SDS011;26349;51.202;4.444;2022-07-23T22:23:25;6.30;;;5.70;;
40661;SDS011;26349;51.202;4.444;2022-07-23T22:25:51;7.60;;;6.63;;
40661;SDS011;26349;51.202;4.444;2022-07-23T22:28:17;11.43;;;7.00;;
40661;SDS011;26349;51.202;4.444;2022-07-23T22:30:43;7.33;;;6.63;;
40661;SDS011;26349;51.202;4.444;2022-07-23T22:33:09;8.97;;;8.07;;
40661;SDS011;26349;51.202;4.444;2022-07-23T22:35:36;7.03;;;6.43;;
40661;SDS011;26349;51.202;4.444;2022-07-23T22:38:02;10.47;;;7.73;;
40661;SDS011;26349;51.202;4.444;2022-07-23T22:40:28;10.20;;;7.60;;
40661;SDS011;26349;51.202;4.444;2022-07-23T22:42:54;8.67;;;7.80;;
40661;SDS011;26349;51.202;4.444;2022-07-23T22:45:21;13.80;;;8.47;;
40661;SDS011;26349;51.202;4.444;2022-07-23T22:47:47;9.23;;;7.90;;
40661;SDS011;26349;51.202;4.444;2022-07-23T22:50:13;14.63;;;8.43;;
40661;SDS011;26349;51.202;4.444;2022-07-23T22:52:40;15.43;;;9.70;;
40661;SDS011;26349;51.202;4.444;2022-07-23T22:55:06;11.30;;;9.17;;
40661;SDS011;26349;51.202;4.444;2022-07-23T22:57:32;13.33;;;9.60;;
40661;SDS011;26349;51.202;4.444;2022-07-23T22:59:58;11.43;;;9.20;;
40661;SDS011;26349;51.202;4.444;2022-07-23T23:02:24;13.27;;;10.40;;
40661;SDS011;26349;51.202;4.444;2022-07-23T23:04:50;14.70;;;11.60;;
40661;SDS011;26349;51.202;4.444;2022-07-23T23:07:17;14.63;;;10.70;;
40661;SDS011;26349;51.202;4.444;2022-07-23T23:09:43;15.33;;;11.23;;
40661;SDS011;26349;51.202;4.444;2022-07-23T23:12:09;15.73;;;11.50;;
40661;SDS011;26349;51.202;4.444;2022-07-23T23:14:35;15.63;;;11.93;;
40661;SDS011;26349;51.202;4.444;2022-07-23T23:17:01;15.30;;;10.87;;
40661;SDS011;26349;51.202;4.444;2022-07-23T23:19:27;16.67;;;12.27;;
40661;SDS011;26349;51.202;4.444;2022-07-23T23:21:53;17.03;;;12.70;;
40661;SDS011;26349;51.202;4.444;2022-07-23T23:24:19;21.60;;;11.93;;
40661;SDS011;26349;51.202;4.444;2022-07-23T23:26:45;13.90;;;12.30;;
40661;SDS011;26349;51.202;4.444;2022-07-23T23:29:11;16.80;;;12.10;;
40661;SDS011;26349;51.202;4.444;2022-07-23T23:31:37;13.60;;;10.67;;
40661;SDS011;26349;51.202;4.444;2022-07-23T23:34:03;14.70;;;12.23;;
40661;SDS011;26349;51.202;4.444;2022-07-23T23:36:29;17.87;;;11.80;;
40661;SDS011;26349;51.202;4.444;2022-07-23T23:38:55;15.40;;;11.27;;
40661;SDS011;26349;51.202;4.444;2022-07-23T23:41:22;13.47;;;10.60;;
40661;SDS011;26349;51.202;4.444;2022-07-23T23:43:51;16.93;;;10.77;;
40661;SDS011;26349;51.202;4.444;2022-07-23T23:46:17;15.90;;;11.30;;
40661;SDS011;26349;51.202;4.444;2022-07-23T23:48:43;14.90;;;10.67;;
40661;SDS011;26349;51.202;4.444;2022-07-23T23:51:10;13.67;;;10.80;;
40661;SDS011;26349;51.202;4.444;2022-07-23T23:53:36;12.63;;;10.10;;
40661;SDS011;26349;51.202;4.444;2022-07-23T23:56:02;13.10;;;9.87;;
40661;SDS011;26349;51.202;4.444;2022-07-23T23:58:28;14.03;;;10.90;;
